sensor_id;sensor_type;location;lat;lon;timestamp;P1;durP1;ratioP1;P2;durP2;ratioP2
13457;SDS011;6801;53.018;11.560;2024-02-04T00:01:35;8.75;;;1.45;;
13457;SDS011;6801;53.018;11.560;2024-02-04T00:04:03;17.48;;;1.77;;
13457;SDS011;6801;53.018;11.560;2024-02-04T00:06:30;10.18;;;1.60;;
13457;SDS011;6801;53.018;11.560;2024-02-04T00:08:57;16.02;;;2.10;;
13457;SDS011;6801;53.018;11.560;2024-02-04T00:11:24;14.40;;;1.92;;
13457;SDS011;6801;53.018;11.560;2024-02-04T00:13:51;12.75;;;1.77;;
13457;SDS011;6801;53.018;11.560;2024-02-04T00:16:18;14.85;;;2.00;;
13457;SDS011;6801;53.018;11.560;2024-02-04T00:18:45;10.05;;;1.50;;
13457;SDS011;6801;53.018;11.560;2024-02-04T00:21:13;14.15;;;1.98;;
13457;SDS011;6801;53.018;11.560;2024-02-04T00:23:40;14.85;;;2.38;;
13457;SDS011;6801;53.018;11.560;2024-02-04T00:26:07;10.02;;;1.55;;
13457;SDS011;6801;53.018;11.560;2024-02-04T00:28:34;15.88;;;2.28;;
13457;SDS011;6801;53.018;11.560;2024-02-04T00:31:01;14.57;;;2.28;;
13457;SDS011;6801;53.018;11.560;2024-02-04T00:33:28;9.88;;;1.33;;
13457;SDS011;6801;53.018;11.560;2024-02-04T00:35:55;12.80;;;2.00;;
13457;SDS011;6801;53.018;11.560;2024-02-04T00:38:23;10.35;;;1.67;;
13457;SDS011;6801;53.018;11.560;2024-02-04T00:40:51;12.63;;;1.73;;
13457;SDS011;6801;53.018;11.560;2024-02-04T00:43:19;12.65;;;1.52;;
13457;SDS011;6801;53.018;11.560;2024-02-04T00:45:46;7.90;;;1.65;;
13457;SDS011;6801;53.018;11.560;2024-02-04T00:48:13;8.65;;;1.60;;
13457;SDS011;6801;53.018;11.560;2024-02-04T00:50:40;13.75;;;1.80;;
13457;SDS011;6801;53.018;11.560;2024-02-04T00:53:07;12.15;;;2.22;;
13457;SDS011;6801;53.018;11.560;2024-02-04T00:55:35;17.10;;;1.35;;
13457;SDS011;6801;53.018;11.560;2024-02-04T00:58:02;10.27;;;1.90;;
13457;SDS011;6801;53.018;11.560;2024-02-04T01:00:29;11.95;;;1.90;;
13457;SDS011;6801;53.018;11.560;2024-02-04T01:02:56;10.00;;;1.35;;
13457;SDS011;6801;53.018;11.560;2024-02-04T01:05:23;16.23;;;2.00;;
13457;SDS011;6801;53.018;11.560;2024-02-04T01:07:50;8.00;;;1.40;;
13457;SDS011;6801;53.018;11.560;2024-02-04T01:10:17;11.68;;;1.70;;
13457;SDS011;6801;53.018;11.560;2024-02-04T01:12:45;14.30;;;2.05;;
13457;SDS011;6801;53.018;11.560;2024-02-04T01:15:12;10.25;;;1.60;;
13457;SDS011;6801;53.018;11.560;2024-02-04T01:17:39;15.63;;;1.70;;
13457;SDS011;6801;53.018;11.560;2024-02-04T01:20:07;13.25;;;1.58;;
13457;SDS011;6801;53.018;11.560;2024-02-04T01:22:35;14.23;;;1.85;;
13457;SDS011;6801;53.018;11.560;2024-02-04T01:25:01;11.75;;;1.65;;
13457;SDS011;6801;53.018;11.560;2024-02-04T01:27:27;8.05;;;1.20;;
13457;SDS011;6801;53.018;11.560;2024-02-04T01:29:56;16.42;;;1.80;;
13457;SDS011;6801;53.018;11.560;2024-02-04T01:32:23;11.70;;;1.80;;
13457;SDS011;6801;53.018;11.560;2024-02-04T01:34:50;15.30;;;2.03;;
13457;SDS011;6801;53.018;11.560;2024-02-04T01:37:17;10.35;;;1.50;;
13457;SDS011;6801;53.018;11.560;2024-02-04T01:39:44;12.80;;;1.65;;
13457;SDS011;6801;53.018;11.560;2024-02-04T01:42:10;13.07;;;2.53;;
13457;SDS011;6801;53.018;11.560;2024-02-04T01:44:37;12.98;;;2.05;;
13457;SDS011;6801;53.018;11.560;2024-02-04T01:47:06;13.70;;;1.75;;
13457;SDS011;6801;53.018;11.560;2024-02-04T01:49:33;9.18;;;1.23;;
13457;SDS011;6801;53.018;11.560;2024-02-04T01:52:00;10.02;;;2.15;;
13457;SDS011;6801;53.018;11.560;2024-02-04T01:54:29;9.82;;;1.48;;
13457;SDS011;6801;53.018;11.560;2024-02-04T01:56:58;10.70;;;2.33;;
13457;SDS011;6801;53.018;11.560;2024-02-04T01:59:26;6.03;;;1.48;;
13457;SDS011;6801;53.018;11.560;2024-02-04T02:01:55;11.05;;;1.65;;
13457;SDS011;6801;53.018;11.560;2024-02-04T02:04:24;10.63;;;1.70;;
13457;SDS011;6801;53.018;11.560;2024-02-04T02:06:51;11.93;;;1.67;;
13457;SDS011;6801;53.018;11.560;2024-02-04T02:09:19;11.55;;;1.92;;
13457;SDS011;6801;53.018;11.560;2024-02-04T02:11:47;14.18;;;2.03;;
13457;SDS011;6801;53.018;11.560;2024-02-04T02:14:31;10.18;;;1.55;;
13457;SDS011;6801;53.018;11.560;2024-02-04T02:17:02;7.03;;;1.58;;
13457;SDS011;6801;53.018;11.560;2024-02-04T02:19:40;13.43;;;1.80;;
13457;SDS011;6801;53.018;11.560;2024-02-04T02:22:17;12.75;;;1.92;;
13457;SDS011;6801;53.018;11.560;2024-02-04T02:24:54;16.02;;;2.10;;
13457;SDS011;6801;53.018;11.560;2024-02-04T02:27:24;11.32;;;1.75;;
13457;SDS011;6801;53.018;11.560;2024-02-04T02:29:51;12.38;;;1.60;;
13457;SDS011;6801;53.018;11.560;2024-02-04T02:32:18;12.32;;;2.75;;
13457;SDS011;6801;53.018;11.560;2024-02-04T02:34:45;8.40;;;1.30;;
13457;SDS011;6801;53.018;11.560;2024-02-04T02:37:16;11.75;;;1.90;;
13457;SDS011;6801;53.018;11.560;2024-02-04T02:39:55;15.93;;;2.03;;
13457;SDS011;6801;53.018;11.560;2024-02-04T02:42:26;10.52;;;1.98;;
13457;SDS011;6801;53.018;11.560;2024-02-04T02:44:53;12.43;;;1.85;;
13457;SDS011;6801;53.018;11.560;2024-02-04T02:47:22;10.88;;;2.50;;
13457;SDS011;6801;53.018;11.560;2024-02-04T02:49:52;7.78;;;1.40;;
13457;SDS011;6801;53.018;11.560;2024-02-04T02:52:19;12.98;;;1.88;;
13457;SDS011;6801;53.018;11.560;2024-02-04T02:54:47;13.07;;;2.30;;
13457;SDS011;6801;53.018;11.560;2024-02-04T02:57:15;8.27;;;2.05;;
13457;SDS011;6801;53.018;11.560;2024-02-04T02:59:42;11.10;;;1.83;;
13457;SDS011;6801;53.018;11.560;2024-02-04T03:02:09;9.07;;;2.13;;
13457;SDS011;6801;53.018;11.560;2024-02-04T03:04:36;13.88;;;2.15;;
13457;SDS011;6801;53.018;11.560;2024-02-04T03:07:03;14.00;;;2.45;;
13457;SDS011;6801;53.018;11.560;2024-02-04T03:09:32;7.95;;;1.95;;
13457;SDS011;6801;53.018;11.560;2024-02-04T03:11:59;10.40;;;1.65;;
13457;SDS011;6801;53.018;11.560;2024-02-04T03:14:28;12.55;;;2.03;;
13457;SDS011;6801;53.018;11.560;2024-02-04T03:16:55;3.53;;;1.45;;
13457;SDS011;6801;53.018;11.560;2024-02-04T03:19:22;6.32;;;1.48;;
13457;SDS011;6801;53.018;11.560;2024-02-04T03:21:49;12.45;;;1.58;;
13457;SDS011;6801;53.018;11.560;2024-02-04T03:24:16;9.88;;;2.30;;
13457;SDS011;6801;53.018;11.560;2024-02-04T03:26:43;8.20;;;1.75;;
13457;SDS011;6801;53.018;11.560;2024-02-04T03:29:10;8.18;;;1.60;;
13457;SDS011;6801;53.018;11.560;2024-02-04T03:31:39;12.43;;;1.95;;
13457;SDS011;6801;53.018;11.560;2024-02-04T03:34:06;11.35;;;1.65;;
13457;SDS011;6801;53.018;11.560;2024-02-04T03:36:33;7.20;;;1.20;;
13457;SDS011;6801;53.018;11.560;2024-02-04T03:39:03;9.30;;;1.60;;
13457;SDS011;6801;53.018;11.560;2024-02-04T03:41:30;11.40;;;1.90;;
13457;SDS011;6801;53.018;11.560;2024-02-04T03:43:57;9.95;;;1.67;;
13457;SDS011;6801;53.018;11.560;2024-02-04T03:46:24;10.15;;;1.63;;
13457;SDS011;6801;53.018;11.560;2024-02-04T03:48:53;16.95;;;1.83;;
13457;SDS011;6801;53.018;11.560;2024-02-04T03:51:20;12.10;;;1.42;;
13457;SDS011;6801;53.018;11.560;2024-02-04T03:53:49;12.50;;;1.58;;
13457;SDS011;6801;53.018;11.560;2024-02-04T03:56:17;3.50;;;1.00;;
13457;SDS011;6801;53.018;11.560;2024-02-04T03:58:45;7.88;;;1.35;;
13457;SDS011;6801;53.018;11.560;2024-02-04T04:01:12;8.23;;;1.40;;
13457;SDS011;6801;53.018;11.560;2024-02-04T04:03:39;15.88;;;1.77;;
13457;SDS011;6801;53.018;11.560;2024-02-04T04:06:08;6.80;;;1.65;;
13457;SDS011;6801;53.018;11.560;2024-02-04T04:08:35;7.63;;;1.33;;
13457;SDS011;6801;53.018;11.560;2024-02-04T04:11:02;13.50;;;1.67;;
13457;SDS011;6801;53.018;11.560;2024-02-04T04:13:29;5.25;;;0.85;;
13457;SDS011;6801;53.018;11.560;2024-02-04T04:15:57;10.75;;;1.83;;
13457;SDS011;6801;53.018;11.560;2024-02-04T04:18:24;12.10;;;2.55;;
13457;SDS011;6801;53.018;11.560;2024-02-04T04:20:51;5.82;;;1.23;;
13457;SDS011;6801;53.018;11.560;2024-02-04T04:23:19;4.90;;;1.05;;
13457;SDS011;6801;53.018;11.560;2024-02-04T04:25:46;8.77;;;2.00;;
13457;SDS011;6801;53.018;11.560;2024-02-04T04:28:13;9.13;;;1.80;;
13457;SDS011;6801;53.018;11.560;2024-02-04T04:30:40;12.55;;;2.13;;
13457;SDS011;6801;53.018;11.560;2024-02-04T04:33:07;8.13;;;1.48;;
13457;SDS011;6801;53.018;11.560;2024-02-04T04:35:34;11.18;;;1.77;;
13457;SDS011;6801;53.018;11.560;2024-02-04T04:38:01;9.25;;;1.35;;
13457;SDS011;6801;53.018;11.560;2024-02-04T04:40:29;9.75;;;1.45;;
13457;SDS011;6801;53.018;11.560;2024-02-04T04:42:56;9.32;;;1.45;;
13457;SDS011;6801;53.018;11.560;2024-02-04T04:45:23;10.38;;;1.90;;
13457;SDS011;6801;53.018;11.560;2024-02-04T04:47:50;13.32;;;1.95;;
13457;SDS011;6801;53.018;11.560;2024-02-04T04:50:17;10.88;;;1.80;;
13457;SDS011;6801;53.018;11.560;2024-02-04T04:52:44;10.90;;;2.25;;
13457;SDS011;6801;53.018;11.560;2024-02-04T04:55:11;7.43;;;1.30;;
13457;SDS011;6801;53.018;11.560;2024-02-04T04:57:39;10.63;;;2.15;;
13457;SDS011;6801;53.018;11.560;2024-02-04T05:00:07;5.88;;;1.88;;
13457;SDS011;6801;53.018;11.560;2024-02-04T05:02:36;7.32;;;2.45;;
13457;SDS011;6801;53.018;11.560;2024-02-04T05:05:03;9.05;;;1.98;;
13457;SDS011;6801;53.018;11.560;2024-02-04T05:07:30;8.85;;;2.15;;
13457;SDS011;6801;53.018;11.560;2024-02-04T05:09:57;7.88;;;2.45;;
13457;SDS011;6801;53.018;11.560;2024-02-04T05:12:24;5.25;;;2.00;;
13457;SDS011;6801;53.018;11.560;2024-02-04T05:14:53;18.02;;;3.03;;
13457;SDS011;6801;53.018;11.560;2024-02-04T05:17:19;14.55;;;2.67;;
13457;SDS011;6801;53.018;11.560;2024-02-04T05:19:46;8.63;;;2.33;;
13457;SDS011;6801;53.018;11.560;2024-02-04T05:22:13;7.50;;;1.80;;
13457;SDS011;6801;53.018;11.560;2024-02-04T05:24:40;7.25;;;1.75;;
13457;SDS011;6801;53.018;11.560;2024-02-04T05:27:07;6.72;;;2.08;;
13457;SDS011;6801;53.018;11.560;2024-02-04T05:29:34;8.27;;;2.35;;
13457;SDS011;6801;53.018;11.560;2024-02-04T05:32:03;6.97;;;2.47;;
13457;SDS011;6801;53.018;11.560;2024-02-04T05:34:30;9.73;;;2.28;;
13457;SDS011;6801;53.018;11.560;2024-02-04T05:36:59;11.98;;;3.17;;
13457;SDS011;6801;53.018;11.560;2024-02-04T05:39:26;11.10;;;3.13;;
13457;SDS011;6801;53.018;11.560;2024-02-04T05:41:53;14.23;;;3.40;;
13457;SDS011;6801;53.018;11.560;2024-02-04T05:44:20;15.75;;;3.70;;
13457;SDS011;6801;53.018;11.560;2024-02-04T05:46:47;8.35;;;2.55;;
13457;SDS011;6801;53.018;11.560;2024-02-04T05:49:15;10.38;;;3.42;;
13457;SDS011;6801;53.018;11.560;2024-02-04T05:51:42;10.75;;;3.60;;
13457;SDS011;6801;53.018;11.560;2024-02-04T05:54:09;7.07;;;3.95;;
13457;SDS011;6801;53.018;11.560;2024-02-04T05:56:36;10.40;;;3.72;;
13457;SDS011;6801;53.018;11.560;2024-02-04T05:59:03;12.95;;;4.65;;
13457;SDS011;6801;53.018;11.560;2024-02-04T06:01:30;11.00;;;3.60;;
13457;SDS011;6801;53.018;11.560;2024-02-04T06:03:58;12.23;;;4.63;;
13457;SDS011;6801;53.018;11.560;2024-02-04T06:06:26;10.65;;;3.63;;
13457;SDS011;6801;53.018;11.560;2024-02-04T06:08:53;10.57;;;4.00;;
13457;SDS011;6801;53.018;11.560;2024-02-04T06:11:20;13.80;;;3.72;;
13457;SDS011;6801;53.018;11.560;2024-02-04T06:13:47;11.57;;;3.55;;
13457;SDS011;6801;53.018;11.560;2024-02-04T06:16:14;13.57;;;4.03;;
13457;SDS011;6801;53.018;11.560;2024-02-04T06:18:41;11.07;;;4.85;;
13457;SDS011;6801;53.018;11.560;2024-02-04T06:21:08;13.43;;;3.90;;
13457;SDS011;6801;53.018;11.560;2024-02-04T06:23:37;8.68;;;4.30;;
13457;SDS011;6801;53.018;11.560;2024-02-04T06:26:04;6.75;;;2.70;;
13457;SDS011;6801;53.018;11.560;2024-02-04T06:28:31;10.48;;;4.28;;
13457;SDS011;6801;53.018;11.560;2024-02-04T06:30:58;15.38;;;4.90;;
13457;SDS011;6801;53.018;11.560;2024-02-04T06:33:25;17.17;;;5.57;;
13457;SDS011;6801;53.018;11.560;2024-02-04T06:35:52;14.50;;;4.57;;
13457;SDS011;6801;53.018;11.560;2024-02-04T06:38:19;12.98;;;4.28;;
13457;SDS011;6801;53.018;11.560;2024-02-04T06:40:47;12.85;;;4.57;;
13457;SDS011;6801;53.018;11.560;2024-02-04T06:43:14;10.13;;;3.00;;
13457;SDS011;6801;53.018;11.560;2024-02-04T06:45:41;13.32;;;3.63;;
13457;SDS011;6801;53.018;11.560;2024-02-04T06:48:08;7.15;;;2.85;;
13457;SDS011;6801;53.018;11.560;2024-02-04T06:50:35;11.60;;;4.28;;
13457;SDS011;6801;53.018;11.560;2024-02-04T06:53:03;13.73;;;4.70;;
13457;SDS011;6801;53.018;11.560;2024-02-04T06:55:30;16.08;;;4.15;;
13457;SDS011;6801;53.018;11.560;2024-02-04T06:57:58;9.20;;;3.85;;
13457;SDS011;6801;53.018;11.560;2024-02-04T07:00:25;9.85;;;4.35;;
13457;SDS011;6801;53.018;11.560;2024-02-04T07:02:52;9.02;;;2.78;;
13457;SDS011;6801;53.018;11.560;2024-02-04T07:05:19;7.07;;;2.55;;
13457;SDS011;6801;53.018;11.560;2024-02-04T07:07:47;11.25;;;4.25;;
13457;SDS011;6801;53.018;11.560;2024-02-04T07:10:14;11.55;;;4.18;;
13457;SDS011;6801;53.018;11.560;2024-02-04T07:12:41;11.10;;;3.88;;
13457;SDS011;6801;53.018;11.560;2024-02-04T07:15:09;10.98;;;4.18;;
13457;SDS011;6801;53.018;11.560;2024-02-04T07:17:36;9.90;;;3.67;;
13457;SDS011;6801;53.018;11.560;2024-02-04T07:20:04;11.88;;;5.30;;
13457;SDS011;6801;53.018;11.560;2024-02-04T07:22:32;14.20;;;5.15;;
13457;SDS011;6801;53.018;11.560;2024-02-04T07:25:00;14.25;;;4.20;;
13457;SDS011;6801;53.018;11.560;2024-02-04T07:27:28;12.63;;;5.05;;
13457;SDS011;6801;53.018;11.560;2024-02-04T07:29:56;9.25;;;3.60;;
13457;SDS011;6801;53.018;11.560;2024-02-04T07:32:24;12.40;;;3.72;;
13457;SDS011;6801;53.018;11.560;2024-02-04T07:34:51;10.38;;;2.70;;
13457;SDS011;6801;53.018;11.560;2024-02-04T07:37:18;9.10;;;3.42;;
13457;SDS011;6801;53.018;11.560;2024-02-04T07:39:45;9.60;;;3.75;;
13457;SDS011;6801;53.018;11.560;2024-02-04T07:42:12;9.20;;;3.83;;
13457;SDS011;6801;53.018;11.560;2024-02-04T07:44:39;10.02;;;3.13;;
13457;SDS011;6801;53.018;11.560;2024-02-04T07:47:06;13.23;;;2.90;;
13457;SDS011;6801;53.018;11.560;2024-02-04T07:49:34;13.88;;;3.30;;
13457;SDS011;6801;53.018;11.560;2024-02-04T07:52:01;12.65;;;3.53;;
13457;SDS011;6801;53.018;11.560;2024-02-04T07:54:28;8.63;;;2.60;;
13457;SDS011;6801;53.018;11.560;2024-02-04T07:56:55;8.18;;;2.47;;
13457;SDS011;6801;53.018;11.560;2024-02-04T07:59:22;10.85;;;2.92;;
13457;SDS011;6801;53.018;11.560;2024-02-04T08:01:49;7.95;;;1.58;;
13457;SDS011;6801;53.018;11.560;2024-02-04T08:04:16;9.65;;;3.22;;
13457;SDS011;6801;53.018;11.560;2024-02-04T08:06:44;12.70;;;3.38;;
13457;SDS011;6801;53.018;11.560;2024-02-04T08:09:11;4.30;;;1.90;;
13457;SDS011;6801;53.018;11.560;2024-02-04T08:11:38;8.50;;;2.78;;
13457;SDS011;6801;53.018;11.560;2024-02-04T08:14:05;11.57;;;2.92;;
13457;SDS011;6801;53.018;11.560;2024-02-04T08:16:32;8.60;;;2.78;;
13457;SDS011;6801;53.018;11.560;2024-02-04T08:19:00;15.75;;;2.28;;
13457;SDS011;6801;53.018;11.560;2024-02-04T08:21:26;12.77;;;4.85;;
13457;SDS011;6801;53.018;11.560;2024-02-04T08:23:57;8.65;;;3.10;;
13457;SDS011;6801;53.018;11.560;2024-02-04T08:26:25;11.93;;;2.85;;
13457;SDS011;6801;53.018;11.560;2024-02-04T08:28:52;5.47;;;1.65;;
13457;SDS011;6801;53.018;11.560;2024-02-04T08:31:18;9.75;;;1.95;;
13457;SDS011;6801;53.018;11.560;2024-02-04T08:33:46;10.43;;;2.30;;
13457;SDS011;6801;53.018;11.560;2024-02-04T08:36:13;9.32;;;2.50;;
13457;SDS011;6801;53.018;11.560;2024-02-04T08:38:40;8.75;;;1.98;;
13457;SDS011;6801;53.018;11.560;2024-02-04T08:41:09;7.20;;;1.67;;
13457;SDS011;6801;53.018;11.560;2024-02-04T08:43:36;9.25;;;1.83;;
13457;SDS011;6801;53.018;11.560;2024-02-04T08:46:03;10.98;;;5.43;;
13457;SDS011;6801;53.018;11.560;2024-02-04T08:48:31;9.45;;;1.45;;
13457;SDS011;6801;53.018;11.560;2024-02-04T08:50:58;4.32;;;1.67;;
13457;SDS011;6801;53.018;11.560;2024-02-04T08:53:25;4.75;;;1.45;;
13457;SDS011;6801;53.018;11.560;2024-02-04T08:55:52;5.15;;;1.80;;
13457;SDS011;6801;53.018;11.560;2024-02-04T08:58:20;8.23;;;1.80;;
13457;SDS011;6801;53.018;11.560;2024-02-04T09:00:48;10.82;;;1.25;;
13457;SDS011;6801;53.018;11.560;2024-02-04T09:03:15;10.00;;;1.63;;
13457;SDS011;6801;53.018;11.560;2024-02-04T09:05:42;8.90;;;1.52;;
13457;SDS011;6801;53.018;11.560;2024-02-04T09:08:09;6.93;;;1.70;;
13457;SDS011;6801;53.018;11.560;2024-02-04T09:10:37;7.50;;;1.50;;
13457;SDS011;6801;53.018;11.560;2024-02-04T09:13:05;4.78;;;1.33;;
13457;SDS011;6801;53.018;11.560;2024-02-04T09:15:33;14.43;;;2.75;;
13457;SDS011;6801;53.018;11.560;2024-02-04T09:18:00;9.98;;;3.58;;
13457;SDS011;6801;53.018;11.560;2024-02-04T09:20:27;10.80;;;2.38;;
13457;SDS011;6801;53.018;11.560;2024-02-04T09:22:54;11.68;;;2.55;;
13457;SDS011;6801;53.018;11.560;2024-02-04T09:25:21;10.63;;;1.63;;
13457;SDS011;6801;53.018;11.560;2024-02-04T09:27:47;4.88;;;0.75;;
13457;SDS011;6801;53.018;11.560;2024-02-04T09:30:14;8.68;;;1.75;;
13457;SDS011;6801;53.018;11.560;2024-02-04T09:32:43;10.75;;;1.75;;
13457;SDS011;6801;53.018;11.560;2024-02-04T09:35:10;8.00;;;1.65;;
13457;SDS011;6801;53.018;11.560;2024-02-04T09:37:37;12.30;;;2.90;;
13457;SDS011;6801;53.018;11.560;2024-02-04T09:40:04;9.60;;;3.00;;
13457;SDS011;6801;53.018;11.560;2024-02-04T09:42:32;4.82;;;1.60;;
13457;SDS011;6801;53.018;11.560;2024-02-04T09:44:59;10.65;;;2.60;;
13457;SDS011;6801;53.018;11.560;2024-02-04T09:47:27;13.82;;;3.95;;
13457;SDS011;6801;53.018;11.560;2024-02-04T09:49:56;12.00;;;1.95;;
13457;SDS011;6801;53.018;11.560;2024-02-04T09:52:25;7.78;;;1.73;;
13457;SDS011;6801;53.018;11.560;2024-02-04T09:54:57;10.80;;;2.45;;
13457;SDS011;6801;53.018;11.560;2024-02-04T09:57:26;12.07;;;2.10;;
13457;SDS011;6801;53.018;11.560;2024-02-04T09:59:54;7.20;;;1.90;;
13457;SDS011;6801;53.018;11.560;2024-02-04T10:02:21;3.50;;;1.23;;
13457;SDS011;6801;53.018;11.560;2024-02-04T10:04:49;9.65;;;1.88;;
13457;SDS011;6801;53.018;11.560;2024-02-04T10:07:17;10.88;;;2.10;;
13457;SDS011;6801;53.018;11.560;2024-02-04T10:09:44;6.38;;;1.30;;
13457;SDS011;6801;53.018;11.560;2024-02-04T10:12:11;8.93;;;1.73;;
13457;SDS011;6801;53.018;11.560;2024-02-04T10:14:38;10.27;;;2.17;;
13457;SDS011;6801;53.018;11.560;2024-02-04T10:17:05;8.10;;;1.95;;
13457;SDS011;6801;53.018;11.560;2024-02-04T10:19:33;10.43;;;1.92;;
13457;SDS011;6801;53.018;11.560;2024-02-04T10:22:00;6.82;;;1.83;;
13457;SDS011;6801;53.018;11.560;2024-02-04T10:24:29;8.85;;;2.42;;
13457;SDS011;6801;53.018;11.560;2024-02-04T10:26:56;10.70;;;1.85;;
13457;SDS011;6801;53.018;11.560;2024-02-04T10:29:24;9.95;;;2.65;;
13457;SDS011;6801;53.018;11.560;2024-02-04T10:31:53;4.13;;;1.08;;
13457;SDS011;6801;53.018;11.560;2024-02-04T10:34:20;11.18;;;2.42;;
13457;SDS011;6801;53.018;11.560;2024-02-04T10:36:47;5.47;;;1.95;;
13457;SDS011;6801;53.018;11.560;2024-02-04T10:39:14;8.55;;;2.22;;
13457;SDS011;6801;53.018;11.560;2024-02-04T10:41:43;11.60;;;2.00;;
13457;SDS011;6801;53.018;11.560;2024-02-04T10:44:15;7.82;;;2.00;;
13457;SDS011;6801;53.018;11.560;2024-02-04T10:46:43;7.05;;;1.83;;
13457;SDS011;6801;53.018;11.560;2024-02-04T10:49:14;11.45;;;2.15;;
13457;SDS011;6801;53.018;11.560;2024-02-04T10:51:41;6.13;;;1.90;;
13457;SDS011;6801;53.018;11.560;2024-02-04T10:54:08;6.72;;;2.00;;
13457;SDS011;6801;53.018;11.560;2024-02-04T10:56:42;8.73;;;1.90;;
13457;SDS011;6801;53.018;11.560;2024-02-04T10:59:10;10.38;;;2.33;;
13457;SDS011;6801;53.018;11.560;2024-02-04T11:01:38;8.57;;;1.83;;
13457;SDS011;6801;53.018;11.560;2024-02-04T11:04:06;7.03;;;1.55;;
13457;SDS011;6801;53.018;11.560;2024-02-04T11:06:36;7.25;;;1.85;;
13457;SDS011;6801;53.018;11.560;2024-02-04T11:09:06;6.57;;;1.83;;
13457;SDS011;6801;53.018;11.560;2024-02-04T11:11:34;8.13;;;2.13;;
13457;SDS011;6801;53.018;11.560;2024-02-04T11:14:05;9.75;;;1.55;;
13457;SDS011;6801;53.018;11.560;2024-02-04T11:16:41;11.00;;;2.17;;
13457;SDS011;6801;53.018;11.560;2024-02-04T11:19:41;9.05;;;1.52;;
13457;SDS011;6801;53.018;11.560;2024-02-04T11:22:19;10.95;;;1.90;;
13457;SDS011;6801;53.018;11.560;2024-02-04T11:25:10;7.65;;;2.03;;
13457;SDS011;6801;53.018;11.560;2024-02-04T11:27:54;7.43;;;1.50;;
13457;SDS011;6801;53.018;11.560;2024-02-04T11:30:23;7.90;;;1.38;;
13457;SDS011;6801;53.018;11.560;2024-02-04T11:32:50;9.40;;;1.50;;
13457;SDS011;6801;53.018;11.560;2024-02-04T11:35:17;5.97;;;1.52;;
13457;SDS011;6801;53.018;11.560;2024-02-04T11:37:47;8.25;;;1.90;;
13457;SDS011;6801;53.018;11.560;2024-02-04T11:40:14;13.95;;;1.58;;
13457;SDS011;6801;53.018;11.560;2024-02-04T11:42:44;14.77;;;1.67;;
13457;SDS011;6801;53.018;11.560;2024-02-04T11:45:11;11.57;;;1.90;;
13457;SDS011;6801;53.018;11.560;2024-02-04T11:47:41;8.30;;;1.73;;
13457;SDS011;6801;53.018;11.560;2024-02-04T11:50:08;11.02;;;1.40;;
13457;SDS011;6801;53.018;11.560;2024-02-04T11:52:36;6.30;;;1.50;;
13457;SDS011;6801;53.018;11.560;2024-02-04T11:55:03;6.00;;;1.30;;
13457;SDS011;6801;53.018;11.560;2024-02-04T11:57:32;6.82;;;1.38;;
13457;SDS011;6801;53.018;11.560;2024-02-04T11:59:59;9.20;;;1.70;;
13457;SDS011;6801;53.018;11.560;2024-02-04T12:02:29;8.73;;;1.63;;
13457;SDS011;6801;53.018;11.560;2024-02-04T12:04:57;7.63;;;1.70;;
13457;SDS011;6801;53.018;11.560;2024-02-04T12:07:26;8.65;;;1.73;;
13457;SDS011;6801;53.018;11.560;2024-02-04T12:09:54;10.50;;;1.55;;
13457;SDS011;6801;53.018;11.560;2024-02-04T12:12:23;7.40;;;1.60;;
13457;SDS011;6801;53.018;11.560;2024-02-04T12:14:50;6.57;;;1.23;;
13457;SDS011;6801;53.018;11.560;2024-02-04T12:17:18;2.95;;;0.63;;
13457;SDS011;6801;53.018;11.560;2024-02-04T12:19:46;9.48;;;1.50;;
13457;SDS011;6801;53.018;11.560;2024-02-04T12:22:14;6.70;;;1.70;;
13457;SDS011;6801;53.018;11.560;2024-02-04T12:24:41;6.57;;;1.42;;
13457;SDS011;6801;53.018;11.560;2024-02-04T12:27:08;10.60;;;1.55;;
13457;SDS011;6801;53.018;11.560;2024-02-04T12:29:35;5.53;;;1.30;;
13457;SDS011;6801;53.018;11.560;2024-02-04T12:32:04;8.25;;;1.23;;
13457;SDS011;6801;53.018;11.560;2024-02-04T12:34:31;10.85;;;2.80;;
13457;SDS011;6801;53.018;11.560;2024-02-04T12:36:59;7.93;;;2.25;;
13457;SDS011;6801;53.018;11.560;2024-02-04T12:39:28;8.27;;;2.10;;
13457;SDS011;6801;53.018;11.560;2024-02-04T12:41:58;6.85;;;1.00;;
13457;SDS011;6801;53.018;11.560;2024-02-04T12:44:25;11.02;;;2.00;;
13457;SDS011;6801;53.018;11.560;2024-02-04T12:46:52;11.55;;;1.88;;
13457;SDS011;6801;53.018;11.560;2024-02-04T12:49:19;5.78;;;1.20;;
13457;SDS011;6801;53.018;11.560;2024-02-04T12:51:47;7.40;;;0.98;;
13457;SDS011;6801;53.018;11.560;2024-02-04T12:54:14;11.05;;;1.70;;
13457;SDS011;6801;53.018;11.560;2024-02-04T12:56:45;7.93;;;1.70;;
13457;SDS011;6801;53.018;11.560;2024-02-04T12:59:23;12.80;;;1.98;;
13457;SDS011;6801;53.018;11.560;2024-02-04T13:01:52;8.70;;;2.17;;
13457;SDS011;6801;53.018;11.560;2024-02-04T13:04:23;11.98;;;2.58;;
13457;SDS011;6801;53.018;11.560;2024-02-04T13:06:50;7.25;;;1.52;;
13457;SDS011;6801;53.018;11.560;2024-02-04T13:09:17;14.57;;;1.30;;
13457;SDS011;6801;53.018;11.560;2024-02-04T13:11:46;5.30;;;0.98;;
13457;SDS011;6801;53.018;11.560;2024-02-04T13:14:13;13.40;;;1.95;;
13457;SDS011;6801;53.018;11.560;2024-02-04T13:16:40;12.30;;;1.50;;
13457;SDS011;6801;53.018;11.560;2024-02-04T13:19:07;11.48;;;1.50;;
13457;SDS011;6801;53.018;11.560;2024-02-04T13:21:34;12.00;;;1.80;;
13457;SDS011;6801;53.018;11.560;2024-02-04T13:24:01;11.00;;;1.40;;
13457;SDS011;6801;53.018;11.560;2024-02-04T13:26:28;10.18;;;1.95;;
13457;SDS011;6801;53.018;11.560;2024-02-04T13:28:56;9.32;;;1.35;;
13457;SDS011;6801;53.018;11.560;2024-02-04T13:31:23;12.10;;;1.55;;
13457;SDS011;6801;53.018;11.560;2024-02-04T13:33:50;15.52;;;1.40;;
13457;SDS011;6801;53.018;11.560;2024-02-04T13:36:17;10.32;;;1.83;;
13457;SDS011;6801;53.018;11.560;2024-02-04T13:38:44;6.57;;;1.83;;
13457;SDS011;6801;53.018;11.560;2024-02-04T13:41:11;9.85;;;1.80;;
13457;SDS011;6801;53.018;11.560;2024-02-04T13:43:38;11.65;;;1.90;;
13457;SDS011;6801;53.018;11.560;2024-02-04T13:46:06;7.82;;;1.70;;
13457;SDS011;6801;53.018;11.560;2024-02-04T13:48:33;9.98;;;1.27;;
13457;SDS011;6801;53.018;11.560;2024-02-04T13:51:00;5.05;;;1.00;;
13457;SDS011;6801;53.018;11.560;2024-02-04T13:53:27;13.40;;;3.28;;
13457;SDS011;6801;53.018;11.560;2024-02-04T13:55:54;10.52;;;1.95;;
13457;SDS011;6801;53.018;11.560;2024-02-04T13:58:21;8.73;;;1.67;;
13457;SDS011;6801;53.018;11.560;2024-02-04T14:00:48;5.53;;;1.17;;
13457;SDS011;6801;53.018;11.560;2024-02-04T14:03:17;11.07;;;1.88;;
13457;SDS011;6801;53.018;11.560;2024-02-04T14:05:44;9.57;;;1.50;;
13457;SDS011;6801;53.018;11.560;2024-02-04T14:08:11;14.13;;;2.17;;
13457;SDS011;6801;53.018;11.560;2024-02-04T14:10:38;6.95;;;1.90;;
13457;SDS011;6801;53.018;11.560;2024-02-04T14:13:06;7.90;;;1.50;;
13457;SDS011;6801;53.018;11.560;2024-02-04T14:15:33;5.93;;;1.73;;
13457;SDS011;6801;53.018;11.560;2024-02-04T14:18:00;8.40;;;1.83;;
13457;SDS011;6801;53.018;11.560;2024-02-04T14:20:28;9.70;;;1.83;;
13457;SDS011;6801;53.018;11.560;2024-02-04T14:22:55;8.65;;;2.03;;
13457;SDS011;6801;53.018;11.560;2024-02-04T14:25:22;8.85;;;1.42;;
13457;SDS011;6801;53.018;11.560;2024-02-04T14:27:50;3.85;;;0.77;;
13457;SDS011;6801;53.018;11.560;2024-02-04T14:30:17;6.13;;;1.15;;
13457;SDS011;6801;53.018;11.560;2024-02-04T14:32:44;5.20;;;1.35;;
13457;SDS011;6801;53.018;11.560;2024-02-04T14:35:11;5.47;;;0.82;;
13457;SDS011;6801;53.018;11.560;2024-02-04T14:37:40;6.25;;;1.33;;
13457;SDS011;6801;53.018;11.560;2024-02-04T14:40:08;12.85;;;1.55;;
13457;SDS011;6801;53.018;11.560;2024-02-04T14:42:36;7.88;;;1.60;;
13457;SDS011;6801;53.018;11.560;2024-02-04T14:45:03;11.65;;;1.70;;